Time;durP1;ratioP1;P1;durP2;ratioP2;P2;SDS_P1;SDS_P2;PMS_P1;PMS_P2;Temp;Humidity;BMP_temperature;BMP_pressure;BME280_temperature;BME280_humidity;BME280_pressure;Samples;Min_cycle;Max_cycle;Signal;HPM_P1;HPM_P2
2021/03/17 00:01:47;;;;;;;;;;;19.80;55.30;;;;;;5072194;28;1230;-69
2021/03/17 00:04:12;;;;;;;;;;;19.70;55.30;;;;;;5071931;28;1286;-69
2021/03/17 00:06:38;;;;;;;;;;;19.70;55.30;;;;;;5070358;28;1638;-69
2021/03/17 00:09:03;;;;;;;;;;;19.80;55.40;;;;;;5074584;28;1953;-69
2021/03/17 00:11:29;;;;;;;;;;;19.70;55.30;;;;;;5075740;28;1411;-69
2021/03/17 00:13:54;;;;;;;;;;;19.70;55.30;;;;;;5075664;28;1371;-68
2021/03/17 00:16:19;;;;;;;;;;;19.70;55.30;;;;;;5074360;28;1587;-68
2021/03/17 00:18:45;;;;;;;;;;;19.70;55.40;;;;;;5075489;28;1265;-68
2021/03/17 00:21:10;;;;;;;;;;;19.70;55.40;;;;;;5075622;28;1335;-68
2021/03/17 00:23:36;;;;;;;;;;;19.70;55.40;;;;;;5075522;28;1831;-68
2021/03/17 00:26:01;;;;;;;;;;;19.70;55.40;;;;;;5074296;28;1579;-69
2021/03/17 00:28:26;;;;;;;;;;;19.70;56.00;;;;;;5074390;28;1961;-69
2021/03/17 00:30:52;;;;;;;;;;;19.70;55.40;;;;;;5070364;22;2395;-65
2021/03/17 00:33:17;;;;;;;;;;;19.70;55.50;;;;;;5050452;28;1725;-65
2021/03/17 00:35:44;;;;;;;;;;;19.70;55.40;;;;;;5045369;28;1362;-64
2021/03/17 00:38:09;;;;;;;;;;;19.70;55.40;;;;;;5054872;28;1350;-65
2021/03/17 00:40:35;;;;;;;;;;;19.70;55.50;;;;;;5054808;28;1666;-63
2021/03/17 00:43:00;;;;;;;;;;;19.70;55.50;;;;;;5053647;28;1589;-64
2021/03/17 00:45:26;;;;;;;;;;;19.70;55.50;;;;;;5054764;28;1675;-65
2021/03/17 00:47:51;;;;;;;;;;;19.60;55.50;;;;;;5054549;28;1973;-65
2021/03/17 00:50:17;;;;;;;;;;;19.70;55.50;;;;;;5054646;28;1650;-65
2021/03/17 00:52:42;;;;;;;;;;;19.70;55.60;;;;;;5054823;28;1297;-65
2021/03/17 00:55:08;;;;;;;;;;;19.60;55.50;;;;;;5053522;28;1381;-64
2021/03/17 00:57:33;;;;;;;;;;;19.70;55.60;;;;;;5040796;28;1249;-62
2021/03/17 00:59:59;;;;;;;;;;;19.70;55.50;;;;;;5054533;28;1364;-64
2021/03/17 01:02:24;;;;;;;;;;;19.70;55.60;;;;;;5054338;28;1824;-64
2021/03/17 01:04:50;;;;;;;;;;;19.70;55.60;;;;;;5053381;28;1637;-64
2021/03/17 01:07:16;;;;;;;;;;;19.60;55.50;;;;;;5052643;28;1953;-62
2021/03/17 01:09:41;;;;;;;;;;;19.60;55.50;;;;;;5054445;28;1309;-65
2021/03/17 01:12:07;;;;;;;;;;;19.60;55.50;;;;;;5054260;28;1642;-65
2021/03/17 01:14:32;;;;;;;;;;;19.60;56.10;;;;;;5053024;28;1646;-65
2021/03/17 01:16:58;;;;;;;;;;;19.60;55.50;;;;;;5054182;28;1251;-64
2021/03/17 01:19:23;;;;;;;;;;;19.60;55.60;;;;;;5052625;28;1658;-65
2021/03/17 01:21:49;;;;;;;;;;;19.60;55.60;;;;;;5054338;28;1489;-65
2021/03/17 01:24:14;;;;;;;;;;;19.60;55.60;;;;;;5053029;28;1381;-65
2021/03/17 01:26:40;;;;;;;;;;;19.60;55.60;;;;;;5054146;28;1628;-65
2021/03/17 01:29:05;;;;;;;;;;;19.60;55.60;;;;;;5053534;28;1973;-65
2021/03/17 01:31:30;;;;;;;;;;;19.60;55.60;;;;;;5053853;28;1393;-65
2021/03/17 01:33:56;;;;;;;;;;;19.60;55.60;;;;;;5054093;28;1285;-65
2021/03/17 01:36:21;;;;;;;;;;;19.60;55.60;;;;;;5053690;28;1332;-65
2021/03/17 01:38:47;;;;;;;;;;;19.60;55.60;;;;;;5053681;28;1647;-65
2021/03/17 01:41:12;;;;;;;;;;;19.60;55.60;;;;;;5053795;28;1444;-64
2021/03/17 01:43:38;;;;;;;;;;;19.60;55.60;;;;;;5053523;28;1409;-64
2021/03/17 01:46:03;;;;;;;;;;;19.60;55.60;;;;;;5053778;28;1478;-66
2021/03/17 01:48:28;;;;;;;;;;;19.50;55.60;;;;;;5053524;28;1957;-65
2021/03/17 01:50:55;;;;;;;;;;;19.50;55.60;;;;;;5053627;28;1353;-64
2021/03/17 01:53:24;;;;;;;;;;;19.60;55.70;;;;;;5053465;28;1409;-65
2021/03/17 01:55:50;;;;;;;;;;;19.50;55.70;;;;;;5051151;28;1639;-64
2021/03/17 01:58:15;;;;;;;;;;;19.50;55.70;;;;;;5047323;28;1651;-65
2021/03/17 02:00:41;;;;;;;;;;;19.50;55.70;;;;;;5042562;28;1285;-65
2021/03/17 02:03:07;;;;;;;;;;;19.50;55.70;;;;;;5044752;28;1490;-63
2021/03/17 02:05:33;;;;;;;;;;;19.50;55.70;;;;;;5045533;28;1235;-65
2021/03/17 02:08:00;;;;;;;;;;;19.50;55.70;;;;;;5041668;28;1992;-65
2021/03/17 02:10:25;;;;;;;;;;;19.50;55.70;;;;;;5048766;28;1428;-65
2021/03/17 02:13:09;;;;;;;;;;;19.50;55.70;;;;;;5054133;28;1644;-64
2021/03/17 02:16:10;;;;;;;;;;;19.50;55.70;;;;;;5054687;28;1668;-64
2021/03/17 02:18:38;;;;;;;;;;;19.50;55.70;;;;;;5031873;28;1444;-65
2021/03/17 02:21:16;;;;;;;;;;;19.50;55.70;;;;;;5043798;28;1372;-64
2021/03/17 02:23:58;;;;;;;;;;;19.50;55.70;;;;;;5053336;28;1297;-65
2021/03/17 02:26:29;;;;;;;;;;;19.50;55.70;;;;;;5054320;28;1412;-64
2021/03/17 02:28:59;;;;;;;;;;;19.50;55.80;;;;;;5053957;28;1897;-65
2021/03/17 02:31:25;;;;;;;;;;;19.50;55.80;;;;;;5053709;28;1310;-64
2021/03/17 02:33:55;;;;;;;;;;;19.50;55.80;;;;;;5054221;28;1381;-64
2021/03/17 02:36:27;;;;;;;;;;;19.50;55.80;;;;;;5053902;28;1701;-65
2021/03/17 02:38:54;;;;;;;;;;;19.50;55.80;;;;;;5052676;28;1610;-65
2021/03/17 02:41:21;;;;;;;;;;;19.50;55.80;;;;;;5052829;28;1365;-64
2021/03/17 02:43:47;;;;;;;;;;;19.50;55.70;;;;;;5052690;28;1405;-64
2021/03/17 02:46:13;;;;;;;;;;;19.50;55.70;;;;;;5052639;28;1183;-65
2021/03/17 02:48:41;;;;;;;;;;;19.50;55.70;;;;;;5052312;28;1906;-64
2021/03/17 02:51:08;;;;;;;;;;;19.50;55.70;;;;;;5052565;28;1286;-64
2021/03/17 02:53:34;;;;;;;;;;;19.50;55.70;;;;;;5053733;28;1396;-65
2021/03/17 02:56:00;;;;;;;;;;;19.50;55.60;;;;;;5052411;28;1206;-64
2021/03/17 02:58:26;;;;;;;;;;;19.50;55.60;;;;;;5051985;28;1391;-65
2021/03/17 03:00:51;;;;;;;;;;;19.50;55.60;;;;;;5052308;28;1652;-65
2021/03/17 03:03:17;;;;;;;;;;;19.50;55.60;;;;;;5053292;28;1503;-63
2021/03/17 03:05:42;;;;;;;;;;;19.50;55.50;;;;;;5052390;28;1730;-65
2021/03/17 03:08:08;;;;;;;;;;;19.60;55.60;;;;;;5053236;28;1894;-65
2021/03/17 03:10:34;;;;;;;;;;;19.50;55.50;;;;;;5052138;28;1514;-65
2021/03/17 03:12:59;;;;;;;;;;;19.60;55.50;;;;;;5053480;28;1490;-64
2021/03/17 03:15:28;;;;;;;;;;;19.60;55.50;;;;;;5051944;28;1224;-64
2021/03/17 03:17:54;;;;;;;;;;;19.60;55.50;;;;;;5053231;28;1681;-64
2021/03/17 03:20:20;;;;;;;;;;;19.60;55.50;;;;;;5053007;28;1687;-63
2021/03/17 03:22:45;;;;;;;;;;;19.60;55.50;;;;;;5053510;28;1373;-65
2021/03/17 03:25:11;;;;;;;;;;;19.60;55.40;;;;;;5053053;28;1688;-64
2021/03/17 03:27:36;;;;;;;;;;;19.60;55.50;;;;;;5052817;28;1953;-65
2021/03/17 03:30:06;;;;;;;;;;;19.60;55.40;;;;;;5052706;28;1707;-64
2021/03/17 03:32:32;;;;;;;;;;;19.60;55.40;;;;;;5053189;28;1529;-64
2021/03/17 03:34:57;;;;;;;;;;;19.60;55.40;;;;;;5053028;28;1722;-64
2021/03/17 03:37:23;;;;;;;;;;;19.60;55.40;;;;;;5051522;28;1615;-65
2021/03/17 03:39:48;;;;;;;;;;;19.60;55.30;;;;;;5053188;28;1417;-64
2021/03/17 03:42:13;;;;;;;;;;;19.60;55.30;;;;;;5052279;28;1687;-64
2021/03/17 03:44:39;;;;;;;;;;;19.70;55.20;;;;;;5052990;28;1436;-65
2021/03/17 03:47:04;;;;;;;;;;;19.80;55.10;;;;;;5051344;28;1650;-64
2021/03/17 03:49:30;;;;;;;;;;;19.90;54.80;;;;;;5052796;28;1658;-65
2021/03/17 03:51:59;;;;;;;;;;;20.10;54.60;;;;;;5051666;28;1430;-65
2021/03/17 03:54:27;;;;;;;;;;;20.20;54.40;;;;;;5051627;28;1370;-65
2021/03/17 03:57:11;;;;;;;;;;;20.30;54.20;;;;;;5051414;28;1276;-65
2021/03/17 03:59:38;;;;;;;;;;;20.40;54.00;;;;;;5052823;28;1546;-65
2021/03/17 04:02:03;;;;;;;;;;;20.50;53.70;;;;;;5051598;28;1369;-65
2021/03/17 04:04:30;;;;;;;;;;;20.60;53.50;;;;;;5051626;28;1647;-63
2021/03/17 04:06:56;;;;;;;;;;;20.70;53.30;;;;;;5051625;28;1158;-64
2021/03/17 04:09:24;;;;;;;;;;;20.80;53.10;;;;;;5052048;28;1898;-65
2021/03/17 04:11:49;;;;;;;;;;;20.80;52.90;;;;;;5051604;28;1076;-65
2021/03/17 04:14:14;;;;;;;;;;;20.90;52.80;;;;;;5051441;28;1676;-65
2021/03/17 04:16:40;;;;;;;;;;;21.00;52.70;;;;;;5051401;28;1359;-65
2021/03/17 04:19:05;;;;;;;;;;;21.00;52.60;;;;;;5052165;28;1445;-66
2021/03/17 04:21:32;;;;;;;;;;;21.10;52.50;;;;;;5051493;28;1834;-66
2021/03/17 04:23:58;;;;;;;;;;;21.10;52.40;;;;;;5052458;28;1505;-65
2021/03/17 04:26:24;;;;;;;;;;;21.20;52.30;;;;;;5034645;28;1348;-64
2021/03/17 04:28:49;;;;;;;;;;;21.20;52.20;;;;;;5051092;28;1910;-66
2021/03/17 04:31:15;;;;;;;;;;;21.20;52.20;;;;;;5051046;28;1602;-66
2021/03/17 04:33:40;;;;;;;;;;;21.20;52.10;;;;;;5051351;28;1386;-65
2021/03/17 04:36:06;;;;;;;;;;;21.30;52.10;;;;;;5051273;28;1380;-65
2021/03/17 04:38:31;;;;;;;;;;;21.30;52.00;;;;;;5050846;28;1703;-65
2021/03/17 04:40:57;;;;;;;;;;;21.30;52.00;;;;;;5051296;28;1192;-65
2021/03/17 04:43:22;;;;;;;;;;;21.30;52.00;;;;;;5052387;28;1346;-65
2021/03/17 04:45:48;;;;;;;;;;;21.30;52.00;;;;;;5051283;28;1541;-65
2021/03/17 04:48:13;;;;;;;;;;;21.30;51.90;;;;;;5050925;28;1914;-65
2021/03/17 04:50:39;;;;;;;;;;;21.30;52.00;;;;;;5052484;28;1653;-65
2021/03/17 04:53:04;;;;;;;;;;;21.30;52.00;;;;;;5050967;28;1523;-65
2021/03/17 04:55:30;;;;;;;;;;;21.40;52.00;;;;;;5054604;28;1130;-65
2021/03/17 04:57:55;;;;;;;;;;;21.40;52.10;;;;;;5054495;28;1793;-65
2021/03/17 05:00:21;;;;;;;;;;;21.30;52.00;;;;;;5054686;28;1678;-65
2021/03/17 05:02:49;;;;;;;;;;;21.30;52.00;;;;;;5055799;28;1690;-65
2021/03/17 05:05:14;;;;;;;;;;;21.30;52.10;;;;;;5056006;28;1671;-64
2021/03/17 05:07:39;;;;;;;;;;;21.30;52.10;;;;;;5054189;28;1894;-63
2021/03/17 05:10:06;;;;;;;;;;;21.30;52.20;;;;;;5054545;28;1694;-66
2021/03/17 05:12:31;;;;;;;;;;;21.30;52.20;;;;;;5054460;28;1508;-65
2021/03/17 05:14:57;;;;;;;;;;;21.30;52.30;;;;;;5054418;28;1420;-66
2021/03/17 05:17:22;;;;;;;;;;;21.20;52.30;;;;;;5055335;28;1621;-65
2021/03/17 05:19:48;;;;;;;;;;;21.20;52.30;;;;;;5054331;28;1543;-64
2021/03/17 05:22:13;;;;;;;;;;;21.20;52.30;;;;;;5055537;28;1254;-65
2021/03/17 05:24:38;;;;;;;;;;;21.20;52.40;;;;;;5037579;28;1628;-65
2021/03/17 05:27:05;;;;;;;;;;;21.20;52.50;;;;;;5053916;28;1324;-64
2021/03/17 05:29:31;;;;;;;;;;;21.10;52.50;;;;;;5055140;28;1961;-65
2021/03/17 05:31:56;;;;;;;;;;;21.10;52.50;;;;;;5055242;28;1513;-66
2021/03/17 05:34:22;;;;;;;;;;;21.10;52.60;;;;;;5054196;28;1368;-65
2021/03/17 05:36:47;;;;;;;;;;;21.10;52.60;;;;;;5055070;28;1447;-65
2021/03/17 05:39:13;;;;;;;;;;;21.10;52.70;;;;;;5053795;28;1681;-65
2021/03/17 05:41:38;;;;;;;;;;;21.00;52.70;;;;;;5055163;28;1662;-65
2021/03/17 05:44:04;;;;;;;;;;;21.00;52.80;;;;;;5054054;28;1584;-65
2021/03/17 05:46:29;;;;;;;;;;;21.00;52.80;;;;;;5054914;28;1385;-64
2021/03/17 05:48:55;;;;;;;;;;;21.00;52.80;;;;;;5054835;28;1959;-64
2021/03/17 05:51:20;;;;;;;;;;;21.00;52.90;;;;;;5055075;28;1666;-64
2021/03/17 05:53:46;;;;;;;;;;;20.90;52.90;;;;;;5053587;28;1428;-64
2021/03/17 05:56:11;;;;;;;;;;;20.90;52.90;;;;;;5054910;28;1627;-64
2021/03/17 05:58:36;;;;;;;;;;;20.90;53.50;;;;;;5053220;28;1645;-65
2021/03/17 06:01:02;;;;;;;;;;;20.90;53.00;;;;;;5053521;28;1669;-65
2021/03/17 06:03:27;;;;;;;;;;;20.90;53.00;;;;;;5053397;28;1411;-64
2021/03/17 06:05:53;;;;;;;;;;;20.90;53.10;;;;;;5032503;28;1603;-66
2021/03/17 06:08:18;;;;;;;;;;;20.90;53.10;;;;;;5038764;28;1918;-65
2021/03/17 06:10:44;;;;;;;;;;;20.90;53.20;;;;;;5047550;28;2155;-66
2021/03/17 06:13:10;;;;;;;;;;;20.80;53.10;;;;;;5047204;28;1406;-66
2021/03/17 06:15:35;;;;;;;;;;;20.80;53.10;;;;;;5037335;28;1761;-66
2021/03/17 06:18:01;;;;;;;;;;;20.90;53.20;;;;;;5047353;28;1318;-66
2021/03/17 06:20:27;;;;;;;;;;;20.90;53.10;;;;;;5054260;28;1618;-66
2021/03/17 06:22:52;;;;;;;;;;;20.90;53.20;;;;;;5054230;28;1648;-65
2021/03/17 06:25:18;;;;;;;;;;;20.90;53.10;;;;;;5053342;28;1692;-66
2021/03/17 06:27:43;;;;;;;;;;;20.90;53.10;;;;;;5052856;28;1894;-66
2021/03/17 06:30:09;;;;;;;;;;;20.90;53.10;;;;;;5071329;22;1984;-67
2021/03/17 06:32:35;;;;;;;;;;;20.80;53.10;;;;;;5028917;28;1348;-67
2021/03/17 06:35:00;;;;;;;;;;;20.90;53.10;;;;;;5033837;28;1673;-68
2021/03/17 06:37:35;;;;;;;;;;;20.90;53.10;;;;;;5036128;28;1700;-68
2021/03/17 06:40:01;;;;;;;;;;;20.90;53.20;;;;;;5029711;28;1756;-67
2021/03/17 06:42:39;;;;;;;;;;;20.80;53.10;;;;;;5034058;28;1480;-67
2021/03/17 06:45:05;;;;;;;;;;;20.80;53.20;;;;;;5034169;28;1455;-68
2021/03/17 06:47:31;;;;;;;;;;;20.80;53.20;;;;;;5015856;28;1898;-67
2021/03/17 06:49:56;;;;;;;;;;;20.80;53.20;;;;;;5016254;28;1582;-67
2021/03/17 06:52:25;;;;;;;;;;;20.80;53.20;;;;;;5033976;28;1405;-67
2021/03/17 06:55:04;;;;;;;;;;;20.80;53.20;;;;;;5034107;28;1642;-67
2021/03/17 06:57:29;;;;;;;;;;;20.80;53.30;;;;;;5033516;28;1523;-69
2021/03/17 06:59:54;;;;;;;;;;;20.80;53.30;;;;;;5033602;28;1264;-70
2021/03/17 07:02:20;;;;;;;;;;;20.80;53.30;;;;;;5013494;28;1424;-70
2021/03/17 07:04:52;;;;;;;;;;;20.80;53.40;;;;;;5016033;28;1672;-69
2021/03/17 07:07:20;;;;;;;;;;;20.80;53.40;;;;;;5015503;28;1973;-69
2021/03/17 07:09:52;;;;;;;;;;;20.70;53.40;;;;;;5015529;28;1655;-68
2021/03/17 07:12:17;;;;;;;;;;;20.70;53.40;;;;;;5014296;28;1402;-68
2021/03/17 07:14:43;;;;;;;;;;;20.70;53.50;;;;;;5032916;28;1652;-65
2021/03/17 07:17:24;;;;;;;;;;;20.70;53.50;;;;;;5032461;28;1655;-65
2021/03/17 07:19:49;;;;;;;;;;;20.70;53.60;;;;;;5033515;28;1372;-66
2021/03/17 07:22:14;;;;;;;;;;;20.70;53.60;;;;;;5032636;28;1371;-66
2021/03/17 07:24:41;;;;;;;;;;;20.60;53.60;;;;;;5033418;28;1679;-68
2021/03/17 07:27:12;;;;;;;;;;;20.60;53.70;;;;;;5018830;28;1522;-66
2021/03/17 07:29:38;;;;;;;;;;;20.60;53.70;;;;;;5029404;28;1949;-65
2021/03/17 07:32:03;;;;;;;;;;;20.60;53.70;;;;;;5018800;28;1285;-66
2021/03/17 07:34:30;;;;;;;;;;;20.60;53.70;;;;;;5032888;28;1319;-67
2021/03/17 07:36:55;;;;;;;;;;;20.60;53.80;;;;;;5032358;28;1765;-68
2021/03/17 07:39:28;;;;;;;;;;;20.60;53.80;;;;;;5032966;28;1433;-68
2021/03/17 07:41:54;;;;;;;;;;;20.50;53.80;;;;;;5015140;28;1257;-68
2021/03/17 07:44:19;;;;;;;;;;;20.50;53.80;;;;;;5032777;28;1168;-67
2021/03/17 07:46:54;;;;;;;;;;;20.50;53.80;;;;;;5032858;28;1664;-67
2021/03/17 07:49:19;;;;;;;;;;;20.50;53.90;;;;;;5032837;28;1985;-68
2021/03/17 07:51:49;;;;;;;;;;;20.50;53.90;;;;;;5014367;28;1532;-68
2021/03/17 07:54:18;;;;;;;;;;;20.50;53.90;;;;;;5015233;28;1676;-68
2021/03/17 07:56:44;;;;;;;;;;;20.50;53.90;;;;;;5015479;28;1393;-69
2021/03/17 07:59:10;;;;;;;;;;;20.50;53.90;;;;;;5027525;28;2230;-69
2021/03/17 08:01:35;;;;;;;;;;;20.50;54.00;;;;;;5015170;28;1661;-68
2021/03/17 08:04:01;;;;;;;;;;;20.40;54.00;;;;;;5015247;28;1449;-69
2021/03/17 08:06:26;;;;;;;;;;;20.50;54.00;;;;;;5024817;28;1362;-69
2021/03/17 08:08:52;;;;;;;;;;;20.50;54.00;;;;;;5014489;28;1963;-69
2021/03/17 08:11:18;;;;;;;;;;;20.40;54.10;;;;;;4988941;28;1560;-69
2021/03/17 08:13:44;;;;;;;;;;;20.40;54.10;;;;;;5010363;28;1693;-69
2021/03/17 08:16:10;;;;;;;;;;;20.40;54.10;;;;;;5015293;28;1710;-69
2021/03/17 08:18:36;;;;;;;;;;;20.40;54.10;;;;;;5014892;28;1567;-69
2021/03/17 08:21:01;;;;;;;;;;;20.40;54.20;;;;;;5032801;28;1390;-69
2021/03/17 08:23:47;;;;;;;;;;;20.40;54.20;;;;;;5014896;28;1598;-69
2021/03/17 08:26:13;;;;;;;;;;;20.40;54.20;;;;;;5015050;28;1598;-69
2021/03/17 08:29:05;;;;;;;;;;;20.40;54.20;;;;;;5032842;28;1907;-70
2021/03/17 08:31:36;;;;;;;;;;;20.40;54.30;;;;;;5020938;28;1312;-70
2021/03/17 08:34:20;;;;;;;;;;;20.30;54.30;;;;;;5036367;28;1367;-70
2021/03/17 08:36:49;;;;;;;;;;;20.30;54.30;;;;;;5018613;28;1500;-70
2021/03/17 08:39:35;;;;;;;;;;;20.30;54.30;;;;;;5018458;28;1355;-69
2021/03/17 08:42:00;;;;;;;;;;;20.30;54.40;;;;;;5036322;28;1552;-69
2021/03/17 08:44:29;;;;;;;;;;;20.30;54.30;;;;;;5036183;28;1624;-69
2021/03/17 08:46:56;;;;;;;;;;;20.30;54.30;;;;;;5018869;28;1661;-69
2021/03/17 08:49:28;;;;;;;;;;;20.30;54.30;;;;;;5018149;28;1918;-69
2021/03/17 08:51:54;;;;;;;;;;;20.30;54.40;;;;;;5018757;28;1600;-69
2021/03/17 08:54:34;;;;;;;;;;;20.20;54.40;;;;;;5036266;28;1641;-69
2021/03/17 08:57:00;;;;;;;;;;;20.20;54.40;;;;;;5035961;28;1521;-69
2021/03/17 08:59:45;;;;;;;;;;;20.20;54.40;;;;;;5035739;28;1406;-69
2021/03/17 09:02:25;;;;;;;;;;;20.20;54.50;;;;;;5015840;28;1700;-69
2021/03/17 09:04:54;;;;;;;;;;;20.20;54.50;;;;;;5036038;28;1446;-70
2021/03/17 09:07:23;;;;;;;;;;;20.20;54.50;;;;;;5035343;28;2004;-70
2021/03/17 09:09:48;;;;;;;;;;;20.20;54.50;;;;;;5035591;28;1390;-70
2021/03/17 09:12:14;;;;;;;;;;;20.20;54.60;;;;;;5035774;28;1275;-70
2021/03/17 09:14:40;;;;;;;;;;;20.20;54.60;;;;;;5018102;28;1383;-70
2021/03/17 09:17:10;;;;;;;;;;;20.20;54.60;;;;;;5017586;28;1328;-69
2021/03/17 09:19:54;;;;;;;;;;;20.20;54.60;;;;;;5017767;28;1397;-68
2021/03/17 09:22:35;;;;;;;;;;;20.10;54.60;;;;;;5035302;28;1248;-70
2021/03/17 09:25:11;;;;;;;;;;;20.10;54.60;;;;;;5035470;28;1340;-68
2021/03/17 09:28:02;;;;;;;;;;;20.10;54.70;;;;;;5017735;28;1906;-68
2021/03/17 09:30:29;;;;;;;;;;;20.10;54.70;;;;;;5027802;28;1448;-68
2021/03/17 09:32:58;;;;;;;;;;;20.10;54.70;;;;;;5028750;28;1308;-68
2021/03/17 09:35:23;;;;;;;;;;;20.10;54.70;;;;;;5017709;28;1634;-68
2021/03/17 09:37:48;;;;;;;;;;;20.10;54.80;;;;;;5034749;28;1714;-68
2021/03/17 09:40:14;;;;;;;;;;;20.10;54.80;;;;;;5016419;28;1708;-68
2021/03/17 09:42:40;;;;;;;;;;;20.10;54.80;;;;;;5017273;28;1735;-68
2021/03/17 09:45:06;;;;;;;;;;;20.10;54.80;;;;;;4997870;28;1591;-68
2021/03/17 09:47:31;;;;;;;;;;;20.10;54.80;;;;;;5010725;28;1958;-68
2021/03/17 09:49:57;;;;;;;;;;;20.10;54.80;;;;;;5017767;28;1675;-69
2021/03/17 09:52:22;;;;;;;;;;;20.10;54.90;;;;;;5034328;28;1142;-69
2021/03/17 09:54:48;;;;;;;;;;;20.10;54.80;;;;;;5035001;28;1435;-70
2021/03/17 09:57:13;;;;;;;;;;;20.10;54.80;;;;;;5017373;28;1943;-70
2021/03/17 09:59:42;;;;;;;;;;;20.00;54.80;;;;;;5010796;28;1941;-69
2021/03/17 10:02:09;;;;;;;;;;;20.00;54.90;;;;;;5026869;28;1404;-69
2021/03/17 10:04:36;;;;;;;;;;;20.00;54.80;;;;;;5025285;28;1198;-69
2021/03/17 10:07:02;;;;;;;;;;;20.00;54.90;;;;;;5016956;28;1289;-69
2021/03/17 10:09:28;;;;;;;;;;;20.00;54.90;;;;;;5034446;28;1965;-69
2021/03/17 10:12:04;;;;;;;;;;;20.00;54.90;;;;;;5034457;28;1366;-69
2021/03/17 10:14:30;;;;;;;;;;;20.00;54.90;;;;;;5016834;28;1287;-69
2021/03/17 10:16:56;;;;;;;;;;;20.00;55.50;;;;;;5000472;28;1353;-69
2021/03/17 10:19:21;;;;;;;;;;;20.00;55.00;;;;;;5034238;28;1292;-69
2021/03/17 10:21:47;;;;;;;;;;;20.00;55.00;;;;;;5034552;28;1373;-69
2021/03/17 10:24:13;;;;;;;;;;;20.00;55.00;;;;;;5034333;28;1547;-69
2021/03/17 10:26:38;;;;;;;;;;;20.00;55.00;;;;;;5034199;28;1292;-69
2021/03/17 10:29:04;;;;;;;;;;;19.90;55.00;;;;;;5016027;28;1902;-69
2021/03/17 10:31:30;;;;;;;;;;;20.00;55.00;;;;;;5021563;28;1310;-69
2021/03/17 10:33:56;;;;;;;;;;;20.00;55.00;;;;;;5033989;28;1269;-69
2021/03/17 10:36:21;;;;;;;;;;;19.90;55.00;;;;;;5012875;28;1884;-69
2021/03/17 10:38:50;;;;;;;;;;;20.00;55.00;;;;;;5031521;28;1076;-68
2021/03/17 10:41:36;;;;;;;;;;;19.90;55.00;;;;;;5014382;28;1292;-69
2021/03/17 10:44:14;;;;;;;;;;;19.90;55.00;;;;;;5022774;28;1086;-69
2021/03/17 10:46:59;;;;;;;;;;;20.00;55.00;;;;;;5015106;28;1275;-69
2021/03/17 10:49:24;;;;;;;;;;;19.90;55.00;;;;;;5031879;28;1973;-69
2021/03/17 10:51:50;;;;;;;;;;;19.90;55.00;;;;;;5030270;28;1099;-69
2021/03/17 10:54:16;;;;;;;;;;;19.90;55.00;;;;;;5026237;28;1332;-70
2021/03/17 10:56:49;;;;;;;;;;;20.00;55.00;;;;;;5014783;28;1320;-69
2021/03/17 10:59:22;;;;;;;;;;;19.90;55.00;;;;;;5032145;28;1255;-70
2021/03/17 11:01:47;;;;;;;;;;;19.90;55.00;;;;;;5014383;28;1333;-70
2021/03/17 11:04:13;;;;;;;;;;;19.90;55.00;;;;;;4995642;28;1500;-70
2021/03/17 11:06:38;;;;;;;;;;;19.90;55.00;;;;;;5032433;28;1233;-70
2021/03/17 11:09:04;;;;;;;;;;;19.90;55.00;;;;;;5031726;28;1905;-69
2021/03/17 11:11:29;;;;;;;;;;;19.90;55.00;;;;;;5032501;28;1331;-69
2021/03/17 11:13:55;;;;;;;;;;;19.90;55.10;;;;;;5014201;28;1202;-70
2021/03/17 11:16:27;;;;;;;;;;;19.90;55.10;;;;;;5014660;28;1318;-69
2021/03/17 11:18:53;;;;;;;;;;;19.90;55.10;;;;;;5031945;28;1267;-70
2021/03/17 11:21:23;;;;;;;;;;;19.90;55.10;;;;;;5030263;28;1270;-69
2021/03/17 11:23:48;;;;;;;;;;;19.90;55.10;;;;;;5031927;28;1373;-70
2021/03/17 11:26:18;;;;;;;;;;;19.90;55.10;;;;;;5031765;28;1265;-70
2021/03/17 11:28:43;;;;;;;;;;;19.90;55.10;;;;;;5013789;28;1969;-69
2021/03/17 11:31:09;;;;;;;;;;;19.90;55.10;;;;;;5031283;28;1215;-69
2021/03/17 11:33:35;;;;;;;;;;;19.90;55.10;;;;;;5031500;28;1269;-69
2021/03/17 11:36:01;;;;;;;;;;;19.90;55.10;;;;;;5013968;28;1108;-69
2021/03/17 11:38:26;;;;;;;;;;;19.90;55.00;;;;;;5031190;28;1256;-69
2021/03/17 11:40:52;;;;;;;;;;;19.90;55.10;;;;;;5014385;28;1268;-70
2021/03/17 11:43:19;;;;;;;;;;;19.90;55.10;;;;;;4993946;28;1450;-69
2021/03/17 11:45:45;;;;;;;;;;;19.90;55.10;;;;;;5023769;28;1120;-69
2021/03/17 11:48:10;;;;;;;;;;;19.90;55.10;;;;;;5031346;28;1906;-70
2021/03/17 11:50:36;;;;;;;;;;;19.90;55.10;;;;;;5031309;28;1243;-69
2021/03/17 11:53:02;;;;;;;;;;;19.90;55.10;;;;;;5013915;28;1103;-70
2021/03/17 11:55:27;;;;;;;;;;;19.90;55.10;;;;;;5013287;28;1320;-69
2021/03/17 11:57:53;;;;;;;;;;;19.90;55.10;;;;;;5029738;28;1199;-70
2021/03/17 12:00:18;;;;;;;;;;;19.80;55.10;;;;;;5031557;28;1278;-70
2021/03/17 12:02:44;;;;;;;;;;;19.90;55.10;;;;;;5011052;28;1385;-69
2021/03/17 12:05:09;;;;;;;;;;;19.80;55.10;;;;;;5013545;28;1112;-70
2021/03/17 12:07:35;;;;;;;;;;;19.80;55.70;;;;;;5031172;28;1958;-70
2021/03/17 12:10:00;;;;;;;;;;;19.90;55.10;;;;;;5031766;28;1354;-69
2021/03/17 12:12:26;;;;;;;;;;;19.80;55.10;;;;;;5031626;28;1259;-69
2021/03/17 12:14:51;;;;;;;;;;;19.80;55.10;;;;;;5031536;28;1313;-69
2021/03/17 12:17:17;;;;;;;;;;;19.90;55.10;;;;;;5031415;28;1062;-68
2021/03/17 12:19:42;;;;;;;;;;;19.90;55.10;;;;;;5031522;28;1260;-69
2021/03/17 12:22:07;;;;;;;;;;;19.90;55.20;;;;;;5014138;28;1147;-70
2021/03/17 12:24:33;;;;;;;;;;;19.90;55.10;;;;;;5031541;28;1326;-68
2021/03/17 12:26:58;;;;;;;;;;;19.80;55.10;;;;;;5031546;28;1469;-68
2021/03/17 12:29:24;;;;;;;;;;;19.80;55.10;;;;;;5030617;28;2031;-69
2021/03/17 12:31:49;;;;;;;;;;;19.80;55.10;;;;;;5031895;28;1327;-69
2021/03/17 12:34:14;;;;;;;;;;;19.90;55.20;;;;;;5031523;28;1298;-69
2021/03/17 12:36:40;;;;;;;;;;;19.90;55.10;;;;;;5013693;28;1152;-69
2021/03/17 12:39:06;;;;;;;;;;;19.80;55.10;;;;;;5031199;28;1283;-69
2021/03/17 12:41:31;;;;;;;;;;;19.80;55.10;;;;;;5013638;28;1326;-70
2021/03/17 12:43:56;;;;;;;;;;;19.80;55.10;;;;;;5013476;28;1068;-69
2021/03/17 12:46:22;;;;;;;;;;;19.80;55.10;;;;;;5013584;28;1232;-70
2021/03/17 12:48:47;;;;;;;;;;;19.80;55.10;;;;;;5031022;28;1914;-69
2021/03/17 12:51:13;;;;;;;;;;;19.80;55.10;;;;;;5013398;28;1336;-68
2021/03/17 12:53:38;;;;;;;;;;;19.80;55.20;;;;;;5031496;28;1438;-68
2021/03/17 12:56:04;;;;;;;;;;;19.80;55.10;;;;;;5013586;28;1234;-68
2021/03/17 12:58:30;;;;;;;;;;;19.90;55.10;;;;;;5030733;28;1403;-67
2021/03/17 13:00:56;;;;;;;;;;;19.80;55.10;;;;;;5031178;28;1263;-67
2021/03/17 13:03:21;;;;;;;;;;;19.90;55.00;;;;;;5028485;28;1071;-67
2021/03/17 13:05:47;;;;;;;;;;;20.00;54.90;;;;;;5031140;28;1253;-68
2021/03/17 13:08:12;;;;;;;;;;;20.10;54.70;;;;;;5030744;28;1976;-68
2021/03/17 13:10:38;;;;;;;;;;;20.20;54.50;;;;;;5031182;28;1613;-68
2021/03/17 13:13:03;;;;;;;;;;;20.30;54.30;;;;;;5031315;28;1267;-68
2021/03/17 13:15:28;;;;;;;;;;;20.50;54.10;;;;;;5031456;28;1287;-68
2021/03/17 13:17:55;;;;;;;;;;;20.50;53.80;;;;;;5034568;28;1386;-68
2021/03/17 13:20:22;;;;;;;;;;;20.60;53.70;;;;;;5016817;28;1283;-68
2021/03/17 13:22:47;;;;;;;;;;;20.70;53.50;;;;;;5017047;28;1375;-68
2021/03/17 13:25:13;;;;;;;;;;;20.80;53.30;;;;;;5016655;28;1357;-68
2021/03/17 13:27:38;;;;;;;;;;;20.80;53.10;;;;;;4996798;28;1906;-68
2021/03/17 13:30:05;;;;;;;;;;;20.90;53.00;;;;;;5012496;28;1282;-70
2021/03/17 13:32:31;;;;;;;;;;;20.90;52.90;;;;;;5034250;28;1236;-69
2021/03/17 13:34:56;;;;;;;;;;;21.00;52.80;;;;;;5034577;28;1283;-68
2021/03/17 13:37:22;;;;;;;;;;;21.00;52.70;;;;;;5028490;28;1905;-69
2021/03/17 13:39:48;;;;;;;;;;;21.10;52.60;;;;;;5031937;28;1884;-69
2021/03/17 13:42:13;;;;;;;;;;;21.10;52.60;;;;;;5027435;28;1341;-69
2021/03/17 13:44:39;;;;;;;;;;;21.10;52.50;;;;;;5014518;28;1132;-69
2021/03/17 13:47:04;;;;;;;;;;;21.10;52.40;;;;;;5034014;28;1276;-68
2021/03/17 13:49:29;;;;;;;;;;;21.20;52.30;;;;;;5033846;28;1967;-68
2021/03/17 13:51:55;;;;;;;;;;;21.20;52.30;;;;;;5034156;28;1457;-68
2021/03/17 13:54:20;;;;;;;;;;;21.30;52.30;;;;;;5033839;28;1252;-68
2021/03/17 13:56:46;;;;;;;;;;;21.20;52.20;;;;;;5033871;28;1209;-68
2021/03/17 13:59:11;;;;;;;;;;;21.30;52.20;;;;;;5029582;28;2180;-68
2021/03/17 14:01:37;;;;;;;;;;;21.30;52.20;;;;;;5029470;28;1244;-68
2021/03/17 14:04:02;;;;;;;;;;;21.30;52.20;;;;;;5013921;28;1159;-68
2021/03/17 14:06:28;;;;;;;;;;;21.30;52.20;;;;;;5019473;28;1055;-68
2021/03/17 14:08:53;;;;;;;;;;;21.30;52.20;;;;;;5014531;28;1902;-68
2021/03/17 14:11:19;;;;;;;;;;;21.30;52.20;;;;;;5033089;28;1381;-68
2021/03/17 14:13:44;;;;;;;;;;;21.30;52.20;;;;;;5015604;28;1457;-68
2021/03/17 14:16:10;;;;;;;;;;;21.30;52.20;;;;;;5016015;28;1270;-68
2021/03/17 14:18:35;;;;;;;;;;;21.30;52.20;;;;;;5015533;28;1247;-68
2021/03/17 14:21:00;;;;;;;;;;;21.30;52.20;;;;;;5033398;28;1303;-68
2021/03/17 14:23:26;;;;;;;;;;;21.30;52.30;;;;;;5015768;28;1243;-68
2021/03/17 14:25:51;;;;;;;;;;;21.30;52.20;;;;;;5033469;28;1292;-68
2021/03/17 14:28:17;;;;;;;;;;;21.20;52.30;;;;;;5032645;28;1961;-68
2021/03/17 14:30:42;;;;;;;;;;;21.20;52.30;;;;;;5015117;28;1239;-68